WXForecasting.com
Aberdeen, SD - Weather Station Data
Daily Summary for October 12, 2017 Units:  Both    English   Metric
Next Day »
Daily Weekly Monthly Yearly Custom
  High: Low: Average:
Temperature: 73.7 °F /  23.2 °C 47.5 °F /  8.6 °C 55.9 °F /  13.3 °C
Dew Point: 50.0 °F /  10 °C 33.0 °F /  0.6 °C 40.9 °F /  4.9 °C
Humidity: 74% 39% 58%
Wind Speed: 18.0mph /  29km/h - 5.4mph /  8.7km/h
Wind Gust: 24.0mph /  38.6km/h - -
Wind- - SW
Pressure: 30.08 in /  1018.5 hPa 29.73 in /  1006.7 hPa -
Precipitation: 0.00 in /  0 mm    
Historical Graphs
 
 
Tabular Data for October 12, 2017
Time Temperature Dew Point Pressure Wind Wind Speed Wind Gust Humidity Rainfall Rate (Hourly) solar Conditions
00:06 51.8 °F /  11 °C 36.0 °F /  2.2 °C 29.90in /  1012.4hPa Calm   13.0mph /  20.9km/h 56% 0.00in /  0mm 0 W/m2
00:21 51.8 °F /  11 °C 37.0 °F /  2.8 °C 29.90in /  1012.4hPa SE 3.0mph /  4.8km/h 11.0mph /  17.7km/h 57% 0.00in /  0mm 0 W/m2
00:36 51.5 °F /  10.8 °C 37.0 °F /  2.8 °C 29.90in /  1012.4hPa SSW 6.0mph /  9.7km/h 9.0mph /  14.5km/h 58% 0.00in /  0mm 0 W/m2
00:51 51.4 °F /  10.8 °C 37.0 °F /  2.8 °C 29.90in /  1012.4hPa SSW 3.0mph /  4.8km/h 10.0mph /  16.1km/h 58% 0.00in /  0mm 0 W/m2
01:06 51.4 °F /  10.8 °C 37.0 °F /  2.8 °C 29.90in /  1012.4hPa South 7.0mph /  11.3km/h 12.0mph /  19.3km/h 59% 0.00in /  0mm 0 W/m2
01:21 52.2 °F /  11.2 °C 37.0 °F /  2.8 °C 29.89in /  1012.1hPa SSW 5.0mph /  8km/h 15.0mph /  24.1km/h 57% 0.00in /  0mm 0 W/m2
01:36 52.4 °F /  11.3 °C 37.0 °F /  2.8 °C 29.89in /  1012.1hPa SSE 9.0mph /  14.5km/h 12.0mph /  19.3km/h 57% 0.00in /  0mm 0 W/m2
02:07 51.6 °F /  10.9 °C 37.0 °F /  2.8 °C 29.88in /  1011.7hPa South 9.0mph /  14.5km/h 15.0mph /  24.1km/h 59% 0.00in /  0mm 0 W/m2
02:21 51.1 °F /  10.6 °C 37.0 °F /  2.8 °C 29.87in /  1011.4hPa SSE 3.0mph /  4.8km/h 10.0mph /  16.1km/h 60% 0.00in /  0mm 0 W/m2
02:36 50.6 °F /  10.3 °C 37.0 °F /  2.8 °C 29.87in /  1011.4hPa South 1.0mph /  1.6km/h 14.0mph /  22.5km/h 61% 0.00in /  0mm 0 W/m2
02:51 50.2 °F /  10.1 °C 37.0 °F /  2.8 °C 29.88in /  1011.7hPa South 9.0mph /  14.5km/h 13.0mph /  20.9km/h 62% 0.00in /  0mm 0 W/m2
03:06 49.6 °F /  9.8 °C 37.0 °F /  2.8 °C 29.87in /  1011.4hPa South 4.0mph /  6.4km/h 13.0mph /  20.9km/h 63% 0.00in /  0mm 0 W/m2
03:21 49.1 °F /  9.5 °C 38.0 °F /  3.3 °C 29.87in /  1011.4hPa South 5.0mph /  8km/h 10.0mph /  16.1km/h 65% 0.00in /  0mm 0 W/m2
03:36 48.8 °F /  9.3 °C 38.0 °F /  3.3 °C 29.86in /  1011.1hPa South 4.0mph /  6.4km/h 10.0mph /  16.1km/h 66% 0.00in /  0mm 0 W/m2
04:06 48.7 °F /  9.3 °C 38.0 °F /  3.3 °C 29.85in /  1010.7hPa SSW 6.0mph /  9.7km/h 10.0mph /  16.1km/h 67% 0.00in /  0mm 0 W/m2
04:21 48.2 °F /  9 °C 38.0 °F /  3.3 °C 29.85in /  1010.7hPa South 1.0mph /  1.6km/h 8.0mph /  12.9km/h 68% 0.00in /  0mm 0 W/m2
04:36 48.1 °F /  8.9 °C 38.0 °F /  3.3 °C 29.84in /  1010.4hPa ESE 2.0mph /  3.2km/h 10.0mph /  16.1km/h 69% 0.00in /  0mm 0 W/m2
05:21 47.6 °F /  8.7 °C 39.0 °F /  3.9 °C 29.84in /  1010.4hPa SSE 1.0mph /  1.6km/h 10.0mph /  16.1km/h 71% 0.00in /  0mm 0 W/m2
05:37 47.6 °F /  8.7 °C 39.0 °F /  3.9 °C 29.84in /  1010.4hPa South 5.0mph /  8km/h 12.0mph /  19.3km/h 71% 0.00in /  0mm 0 W/m2
05:52 47.8 °F /  8.8 °C 39.0 °F /  3.9 °C 29.84in /  1010.4hPa SE 3.0mph /  4.8km/h 14.0mph /  22.5km/h 71% 0.00in /  0mm 0 W/m2
06:07 47.8 °F /  8.8 °C 39.0 °F /  3.9 °C 29.84in /  1010.4hPa SSE 5.0mph /  8km/h 11.0mph /  17.7km/h 71% 0.00in /  0mm 0 W/m2
06:22 47.7 °F /  8.7 °C 39.0 °F /  3.9 °C 29.84in /  1010.4hPa South 1.0mph /  1.6km/h 14.0mph /  22.5km/h 72% 0.00in /  0mm 0 W/m2
06:37 47.6 °F /  8.7 °C 39.0 °F /  3.9 °C 29.84in /  1010.4hPa SSE 2.0mph /  3.2km/h 9.0mph /  14.5km/h 72% 0.00in /  0mm 0 W/m2
06:52 47.7 °F /  8.7 °C 39.0 °F /  3.9 °C 29.83in /  1010hPa South 2.0mph /  3.2km/h 13.0mph /  20.9km/h 73% 0.00in /  0mm 0 W/m2
07:08 47.7 °F /  8.7 °C 39.0 °F /  3.9 °C 29.82in /  1009.7hPa SSE 1.0mph /  1.6km/h 8.0mph /  12.9km/h 73% 0.00in /  0mm 0 W/m2
07:22 47.5 °F /  8.6 °C 39.0 °F /  3.9 °C 29.82in /  1009.7hPa SSW 5.0mph /  8km/h 13.0mph /  20.9km/h 73% 0.00in /  0mm 0 W/m2
07:37 47.5 °F /  8.6 °C 39.0 °F /  3.9 °C 29.82in /  1009.7hPa SE 4.0mph /  6.4km/h 10.0mph /  16.1km/h 73% 0.00in /  0mm 0 W/m2
07:52 47.5 °F /  8.6 °C 39.0 °F /  3.9 °C 29.82in /  1009.7hPa SSW 2.0mph /  3.2km/h 9.0mph /  14.5km/h 73% 0.00in /  0mm 9 W/m2
08:07 47.5 °F /  8.6 °C 40.0 °F /  4.4 °C 29.81in /  1009.4hPa SSE 7.0mph /  11.3km/h 12.0mph /  19.3km/h 74% 0.00in /  0mm 16 W/m2
08:22 47.8 °F /  8.8 °C 40.0 °F /  4.4 °C 29.82in /  1009.7hPa SSW 2.0mph /  3.2km/h 9.0mph /  14.5km/h 74% 0.00in /  0mm 25 W/m2
08:37 48.3 °F /  9.1 °C 40.0 °F /  4.4 °C 29.83in /  1010hPa SSE 2.0mph /  3.2km/h 10.0mph /  16.1km/h 73% 0.00in /  0mm 30 W/m2
08:52 49.2 °F /  9.6 °C 41.0 °F /  5 °C 29.82in /  1009.7hPa SSW 5.0mph /  8km/h 10.0mph /  16.1km/h 72% 0.00in /  0mm 128 W/m2
09:07 50.2 °F /  10.1 °C 41.0 °F /  5 °C 29.83in /  1010hPa SSW 11.0mph /  17.7km/h 15.0mph /  24.1km/h 70% 0.00in /  0mm 176 W/m2
09:22 51.1 °F /  10.6 °C 41.0 °F /  5 °C 29.83in /  1010hPa South 4.0mph /  6.4km/h 17.0mph /  27.4km/h 69% 0.00in /  0mm 223 W/m2
09:37 52.2 °F /  11.2 °C 42.0 °F /  5.6 °C 29.82in /  1009.7hPa South 10.0mph /  16.1km/h 18.0mph /  29km/h 68% 0.00in /  0mm 264 W/m2
09:52 53.6 °F /  12 °C 43.0 °F /  6.1 °C 29.82in /  1009.7hPa South 4.0mph /  6.4km/h 12.0mph /  19.3km/h 67% 0.00in /  0mm 301 W/m2
10:07 54.9 °F /  12.7 °C 44.0 °F /  6.7 °C 29.81in /  1009.4hPa SSW 3.0mph /  4.8km/h 17.0mph /  27.4km/h 67% 0.00in /  0mm 338 W/m2
10:22 55.0 °F /  12.8 °C 43.0 °F /  6.1 °C 29.81in /  1009.4hPa SSE 11.0mph /  17.7km/h 16.0mph /  25.7km/h 65% 0.00in /  0mm 371 W/m2
10:38 55.5 °F /  13.1 °C 43.0 °F /  6.1 °C 29.81in /  1009.4hPa SSE 5.0mph /  8km/h 24.0mph /  38.6km/h 64% 0.00in /  0mm 404 W/m2
10:52 56.3 °F /  13.5 °C 44.0 °F /  6.7 °C 29.80in /  1009hPa SW 7.0mph /  11.3km/h 18.0mph /  29km/h 64% 0.00in /  0mm 436 W/m2
11:08 57.7 °F /  14.3 °C 45.0 °F /  7.2 °C 29.80in /  1009hPa South 4.0mph /  6.4km/h 13.0mph /  20.9km/h 63% 0.00in /  0mm 466 W/m2
11:23 58.0 °F /  14.4 °C 45.0 °F /  7.2 °C 29.79in /  1008.7hPa South 4.0mph /  6.4km/h 20.0mph /  32.2km/h 63% 0.00in /  0mm 346 W/m2
11:38 59.5 °F /  15.3 °C 45.0 °F /  7.2 °C 29.79in /  1008.7hPa South 7.0mph /  11.3km/h 17.0mph /  27.4km/h 60% 0.00in /  0mm 513 W/m2
11:53 59.6 °F /  15.3 °C 45.0 °F /  7.2 °C 29.78in /  1008.4hPa South 13.0mph /  20.9km/h 20.0mph /  32.2km/h 59% 0.00in /  0mm 533 W/m2
12:08 61.1 °F /  16.2 °C 46.0 °F /  7.8 °C 29.79in /  1008.7hPa SSW 15.0mph /  24.1km/h 17.0mph /  27.4km/h 57% 0.00in /  0mm 547 W/m2
12:23 61.8 °F /  16.6 °C 46.0 °F /  7.8 °C 29.77in /  1008hPa SSW 8.0mph /  12.9km/h 21.0mph /  33.8km/h 57% 0.00in /  0mm 559 W/m2
12:38 62.5 °F /  16.9 °C 46.0 °F /  7.8 °C 29.77in /  1008hPa SE 4.0mph /  6.4km/h 18.0mph /  29km/h 56% 0.00in /  0mm 570 W/m2
12:53 63.4 °F /  17.4 °C 47.0 °F /  8.3 °C 29.77in /  1008hPa South 7.0mph /  11.3km/h 17.0mph /  27.4km/h 55% 0.00in /  0mm 566 W/m2
13:08 64.3 °F /  17.9 °C 47.0 °F /  8.3 °C 29.77in /  1008hPa South 18.0mph /  29km/h 21.0mph /  33.8km/h 54% 0.00in /  0mm 577 W/m2
13:23 64.3 °F /  17.9 °C 47.0 °F /  8.3 °C 29.76in /  1007.7hPa South 14.0mph /  22.5km/h 21.0mph /  33.8km/h 54% 0.00in /  0mm 547 W/m2
13:38 64.7 °F /  18.2 °C 47.0 °F /  8.3 °C 29.76in /  1007.7hPa SSW 8.0mph /  12.9km/h 17.0mph /  27.4km/h 54% 0.00in /  0mm 526 W/m2
13:53 64.9 °F /  18.3 °C 47.0 °F /  8.3 °C 29.75in /  1007.3hPa South 10.0mph /  16.1km/h 20.0mph /  32.2km/h 53% 0.00in /  0mm 564 W/m2
14:08 64.9 °F /  18.3 °C 48.0 °F /  8.9 °C 29.75in /  1007.3hPa South 3.0mph /  4.8km/h 15.0mph /  24.1km/h 55% 0.00in /  0mm 654 W/m2
14:23 66.7 °F /  19.3 °C 49.0 °F /  9.4 °C 29.75in /  1007.3hPa SSE 5.0mph /  8km/h 16.0mph /  25.7km/h 53% 0.00in /  0mm 564 W/m2
14:38 68.0 °F /  20 °C 49.0 °F /  9.4 °C 29.75in /  1007.3hPa SSE 9.0mph /  14.5km/h 23.0mph /  37km/h 51% 0.00in /  0mm 686 W/m2
14:53 67.0 °F /  19.4 °C 49.0 °F /  9.4 °C 29.74in /  1007hPa SW 9.0mph /  14.5km/h 22.0mph /  35.4km/h 53% 0.00in /  0mm 613 W/m2
15:08 69.1 °F /  20.6 °C 49.0 °F /  9.4 °C 29.74in /  1007hPa SSW 11.0mph /  17.7km/h 17.0mph /  27.4km/h 49% 0.00in /  0mm 582 W/m2
15:23 70.3 °F /  21.3 °C 50.0 °F /  10 °C 29.74in /  1007hPa SW 6.0mph /  9.7km/h 17.0mph /  27.4km/h 49% 0.00in /  0mm 473 W/m2
15:38 71.0 °F /  21.7 °C 50.0 °F /  10 °C 29.74in /  1007hPa SW 7.0mph /  11.3km/h 17.0mph /  27.4km/h 47% 0.00in /  0mm 482 W/m2
15:54 71.7 °F /  22.1 °C 49.0 °F /  9.4 °C 29.73in /  1006.7hPa South 5.0mph /  8km/h 19.0mph /  30.6km/h 44% 0.00in /  0mm 276 W/m2
16:09 72.6 °F /  22.6 °C 49.0 °F /  9.4 °C 29.74in /  1007hPa South 12.0mph /  19.3km/h 17.0mph /  27.4km/h 44% 0.00in /  0mm 374 W/m2
16:24 73.0 °F /  22.8 °C 48.0 °F /  8.9 °C 29.75in /  1007.3hPa SSW 7.0mph /  11.3km/h 18.0mph /  29km/h 41% 0.00in /  0mm 330 W/m2
16:39 73.7 °F /  23.2 °C 48.0 °F /  8.9 °C 29.75in /  1007.3hPa SW 5.0mph /  8km/h 17.0mph /  27.4km/h 40% 0.00in /  0mm 292 W/m2
16:54 69.0 °F /  20.6 °C 43.0 °F /  6.1 °C 29.77in /  1008hPa WSW 9.0mph /  14.5km/h 22.0mph /  35.4km/h 39% 0.00in /  0mm 255 W/m2
17:09 66.4 °F /  19.1 °C 42.0 °F /  5.6 °C 29.79in /  1008.7hPa East 9.0mph /  14.5km/h 19.0mph /  30.6km/h 42% 0.00in /  0mm 213 W/m2
17:24 63.7 °F /  17.6 °C 44.0 °F /  6.7 °C 29.81in /  1009.4hPa NW 5.0mph /  8km/h 18.0mph /  29km/h 49% 0.00in /  0mm 167 W/m2
17:39 62.8 °F /  17.1 °C 44.0 °F /  6.7 °C 29.82in /  1009.7hPa NNE 8.0mph /  12.9km/h 19.0mph /  30.6km/h 50% 0.00in /  0mm 120 W/m2
17:54 61.4 °F /  16.3 °C 43.0 °F /  6.1 °C 29.84in /  1010.4hPa North 5.0mph /  8km/h 13.0mph /  20.9km/h 51% 0.00in /  0mm 76 W/m2
18:09 60.4 °F /  15.8 °C 42.0 °F /  5.6 °C 29.85in /  1010.7hPa SE 5.0mph /  8km/h 18.0mph /  29km/h 52% 0.00in /  0mm 40 W/m2
18:24 59.5 °F /  15.3 °C 42.0 °F /  5.6 °C 29.87in /  1011.4hPa NW 4.0mph /  6.4km/h 14.0mph /  22.5km/h 53% 0.00in /  0mm 16 W/m2
18:39 58.7 °F /  14.8 °C 42.0 °F /  5.6 °C 29.88in /  1011.7hPa WNW 1.0mph /  1.6km/h 9.0mph /  14.5km/h 54% 0.00in /  0mm 11 W/m2
18:54 58.2 °F /  14.6 °C 42.0 °F /  5.6 °C 29.89in /  1012.1hPa WNW 2.0mph /  3.2km/h 12.0mph /  19.3km/h 55% 0.00in /  0mm 5 W/m2
19:09 57.7 °F /  14.3 °C 42.0 °F /  5.6 °C 29.91in /  1012.8hPa NW 5.0mph /  8km/h 16.0mph /  25.7km/h 56% 0.00in /  0mm 0 W/m2
19:24 57.1 °F /  13.9 °C 41.0 °F /  5 °C 29.91in /  1012.8hPa West 4.0mph /  6.4km/h 14.0mph /  22.5km/h 56% 0.00in /  0mm 0 W/m2
19:39 56.4 °F /  13.6 °C 40.0 °F /  4.4 °C 29.93in /  1013.4hPa NW 5.0mph /  8km/h 16.0mph /  25.7km/h 55% 0.00in /  0mm 0 W/m2
19:54 55.8 °F /  13.2 °C 40.0 °F /  4.4 °C 29.96in /  1014.4hPa NW 4.0mph /  6.4km/h 15.0mph /  24.1km/h 56% 0.00in /  0mm 0 W/m2
20:09 55.0 °F /  12.8 °C 40.0 °F /  4.4 °C 29.96in /  1014.4hPa NW 5.0mph /  8km/h 9.0mph /  14.5km/h 57% 0.00in /  0mm 0 W/m2
20:24 54.5 °F /  12.5 °C 39.0 °F /  3.9 °C 29.97in /  1014.8hPa NW 2.0mph /  3.2km/h 13.0mph /  20.9km/h 57% 0.00in /  0mm 0 W/m2
20:39 54.4 °F /  12.4 °C 36.0 °F /  2.2 °C 29.98in /  1015.1hPa NW 4.0mph /  6.4km/h 16.0mph /  25.7km/h 51% 0.00in /  0mm 0 W/m2
20:54 54.2 °F /  12.3 °C 36.0 °F /  2.2 °C 29.98in /  1015.1hPa NNW 4.0mph /  6.4km/h 14.0mph /  22.5km/h 50% 0.00in /  0mm 0 W/m2
21:09 53.9 °F /  12.2 °C 35.0 °F /  1.7 °C 29.99in /  1015.5hPa NNW 4.0mph /  6.4km/h 11.0mph /  17.7km/h 49% 0.00in /  0mm 0 W/m2
21:24 53.5 °F /  11.9 °C 34.0 °F /  1.1 °C 30.00in /  1015.8hPa NNW 9.0mph /  14.5km/h 12.0mph /  19.3km/h 48% 0.00in /  0mm 0 W/m2
21:39 53.1 °F /  11.7 °C 34.0 °F /  1.1 °C 30.02in /  1016.5hPa SW 6.0mph /  9.7km/h 12.0mph /  19.3km/h 48% 0.00in /  0mm 0 W/m2
21:54 53.1 °F /  11.7 °C 34.0 °F /  1.1 °C 30.03in /  1016.8hPa NW 1.0mph /  1.6km/h 12.0mph /  19.3km/h 48% 0.00in /  0mm 0 W/m2
22:09 53.0 °F /  11.7 °C 34.0 °F /  1.1 °C 30.04in /  1017.2hPa North 3.0mph /  4.8km/h 12.0mph /  19.3km/h 49% 0.00in /  0mm 0 W/m2
22:24 52.4 °F /  11.3 °C 34.0 °F /  1.1 °C 30.04in /  1017.2hPa NW 5.0mph /  8km/h 15.0mph /  24.1km/h 50% 0.00in /  0mm 0 W/m2
22:39 51.7 °F /  10.9 °C 34.0 °F /  1.1 °C 30.06in /  1017.8hPa NW 2.0mph /  3.2km/h 8.0mph /  12.9km/h 51% 0.00in /  0mm 0 W/m2
22:54 50.8 °F /  10.4 °C 34.0 °F /  1.1 °C 30.06in /  1017.8hPa NW 3.0mph /  4.8km/h 6.0mph /  9.7km/h 53% 0.00in /  0mm 0 W/m2
23:09 49.9 °F /  9.9 °C 34.0 °F /  1.1 °C 30.06in /  1017.8hPa NW 2.0mph /  3.2km/h 8.0mph /  12.9km/h 54% 0.00in /  0mm 0 W/m2
23:25 49.7 °F /  9.8 °C 33.0 °F /  0.6 °C 30.07in /  1018.2hPa NW 3.0mph /  4.8km/h 15.0mph /  24.1km/h 53% 0.00in /  0mm 0 W/m2
23:39 49.3 °F /  9.6 °C 33.0 °F /  0.6 °C 30.07in /  1018.2hPa NNW 6.0mph /  9.7km/h 11.0mph /  17.7km/h 54% 0.00in /  0mm 0 W/m2
23:54 48.8 °F /  9.3 °C 33.0 °F /  0.6 °C 30.08in /  1018.5hPa NNW 4.0mph /  6.4km/h 8.0mph /  12.9km/h 55% 0.00in /  0mm 0 W/m2